createdAt,value
2022-12-22T00:00:14.924Z,0.00
2022-12-22T00:01:14.915Z,0.00
2022-12-22T00:02:15.173Z,0.00
2022-12-22T00:03:15.198Z,0.00
2022-12-22T00:04:15.078Z,0.00
2022-12-22T00:05:14.853Z,0.00
2022-12-22T00:06:14.843Z,0.00
2022-12-22T00:07:14.830Z,0.00
2022-12-22T00:08:14.827Z,0.00
2022-12-22T00:09:14.807Z,0.00
2022-12-22T00:10:14.802Z,0.00
2022-12-22T00:11:14.804Z,0.00
2022-12-22T00:12:14.771Z,0.00
2022-12-22T00:13:14.769Z,0.00
2022-12-22T00:14:14.757Z,0.00
2022-12-22T00:15:14.747Z,0.00
2022-12-22T00:16:14.816Z,0.00
2022-12-22T00:17:14.777Z,0.00
2022-12-22T00:18:14.707Z,0.00
2022-12-22T00:19:14.728Z,0.00
2022-12-22T00:20:18.528Z,0.00
2022-12-22T00:21:14.683Z,0.00
2022-12-22T00:22:14.673Z,0.00
2022-12-22T00:23:14.655Z,0.00
2022-12-22T00:24:14.647Z,0.00
2022-12-22T00:25:14.633Z,0.00
2022-12-22T00:26:14.623Z,0.00
2022-12-22T00:27:14.611Z,0.00
2022-12-22T00:28:14.601Z,0.00
2022-12-22T00:29:14.588Z,0.00
2022-12-22T00:30:14.574Z,0.00
2022-12-22T00:31:14.659Z,0.00
2022-12-22T00:32:14.571Z,0.00
2022-12-22T00:33:14.544Z,0.00
2022-12-22T00:34:14.539Z,0.00
2022-12-22T00:35:14.549Z,0.00
2022-12-22T00:36:14.514Z,0.00
2022-12-22T00:37:14.512Z,0.00
2022-12-22T00:38:14.488Z,0.00
2022-12-22T00:39:14.483Z,0.00
2022-12-22T00:40:14.459Z,0.00
2022-12-22T00:41:14.455Z,0.00
2022-12-22T00:42:14.447Z,0.00
2022-12-22T00:43:14.435Z,0.00
2022-12-22T00:44:14.425Z,0.00
2022-12-22T00:45:14.410Z,0.00
2022-12-22T00:46:14.557Z,0.00
2022-12-22T00:47:14.380Z,0.00
2022-12-22T00:48:14.383Z,0.00
2022-12-22T00:49:14.367Z,0.00
2022-12-22T00:50:14.356Z,0.00
2022-12-22T00:51:14.377Z,0.00
2022-12-22T00:52:14.334Z,0.00
2022-12-22T00:53:14.330Z,0.00
2022-12-22T00:54:14.318Z,0.00
2022-12-22T00:55:14.304Z,0.00
2022-12-22T00:56:14.283Z,0.00
2022-12-22T00:57:14.274Z,0.00
2022-12-22T00:58:14.263Z,0.00
2022-12-22T00:59:14.251Z,0.00
2022-12-22T01:00:14.249Z,0.00
2022-12-22T01:01:14.298Z,0.00
2022-12-22T01:02:14.502Z,0.00
2022-12-22T01:03:14.448Z,0.00
2022-12-22T01:04:14.205Z,0.00
2022-12-22T01:05:14.197Z,0.00
2022-12-22T01:06:14.184Z,0.00
2022-12-22T01:07:14.192Z,0.00
2022-12-22T01:08:14.156Z,0.00
2022-12-22T01:09:14.137Z,0.00
2022-12-22T01:10:14.131Z,0.00
2022-12-22T01:11:14.120Z,0.00
2022-12-22T01:12:14.120Z,0.00
2022-12-22T01:13:14.093Z,0.00
2022-12-22T01:14:14.084Z,0.00
2022-12-22T01:15:14.072Z,0.00
2022-12-22T01:16:14.212Z,0.00
2022-12-22T01:17:14.045Z,0.00
2022-12-22T01:18:14.035Z,0.00
2022-12-22T01:19:14.030Z,0.00
2022-12-22T01:20:14.014Z,0.00
2022-12-22T01:21:14.007Z,0.00
2022-12-22T01:22:13.999Z,0.00
2022-12-22T01:23:14.004Z,0.00
2022-12-22T01:24:13.971Z,0.00
2022-12-22T01:25:13.956Z,0.00
2022-12-22T01:26:13.965Z,0.00
2022-12-22T01:27:13.930Z,0.00
2022-12-22T01:28:13.920Z,0.00
2022-12-22T01:29:13.909Z,0.00
2022-12-22T01:30:13.913Z,0.00
2022-12-22T01:31:13.965Z,0.00
2022-12-22T01:32:13.873Z,0.00
2022-12-22T01:33:13.867Z,0.00
2022-12-22T01:34:13.865Z,0.00
2022-12-22T01:35:13.840Z,0.00
2022-12-22T01:36:13.829Z,0.00
2022-12-22T01:37:13.823Z,0.00
2022-12-22T01:38:13.821Z,0.00
2022-12-22T01:39:13.820Z,0.00
2022-12-22T01:40:13.795Z,0.00
2022-12-22T01:41:13.782Z,0.00
2022-12-22T01:42:13.769Z,0.00
2022-12-22T01:43:13.760Z,0.00
2022-12-22T01:44:13.744Z,0.00
2022-12-22T01:45:13.735Z,0.00
2022-12-22T01:46:13.784Z,0.00
2022-12-22T01:47:13.714Z,0.00
2022-12-22T01:48:13.693Z,0.00
2022-12-22T01:49:13.693Z,0.00
2022-12-22T01:50:13.669Z,0.00
2022-12-22T01:51:13.673Z,0.00
2022-12-22T01:52:13.647Z,0.00
2022-12-22T01:53:19.661Z,0.00
2022-12-22T01:54:13.630Z,0.00
2022-12-22T01:55:13.655Z,0.00
2022-12-22T01:56:13.601Z,0.00
2022-12-22T01:57:13.590Z,0.00
2022-12-22T01:58:13.580Z,0.00
2022-12-22T01:59:13.640Z,0.00
2022-12-22T02:00:13.571Z,0.00
2022-12-22T02:01:13.608Z,0.00
2022-12-22T02:02:13.686Z,0.00
2022-12-22T02:03:13.570Z,0.00
2022-12-22T02:04:13.517Z,0.00
2022-12-22T02:05:13.518Z,0.00
2022-12-22T02:06:13.496Z,0.00
2022-12-22T02:07:13.482Z,0.00
2022-12-22T02:08:13.483Z,0.00
2022-12-22T02:09:13.457Z,0.00
2022-12-22T02:10:13.462Z,0.00
2022-12-22T02:11:13.452Z,0.00
2022-12-22T02:12:13.426Z,0.00
2022-12-22T02:13:13.420Z,0.00
2022-12-22T02:14:13.406Z,0.00
2022-12-22T02:15:13.393Z,0.00
2022-12-22T02:16:13.447Z,0.00
2022-12-22T02:17:13.375Z,0.00
2022-12-22T02:18:13.359Z,0.00
2022-12-22T02:19:13.361Z,0.00
2022-12-22T02:20:13.354Z,0.00
2022-12-22T02:21:13.382Z,0.00
2022-12-22T02:22:13.326Z,0.00
2022-12-22T02:23:13.373Z,0.00
2022-12-22T02:24:13.306Z,0.00
2022-12-22T02:25:13.273Z,0.00
2022-12-22T02:26:13.293Z,0.00
2022-12-22T02:27:13.281Z,0.00
2022-12-22T02:28:13.245Z,0.00
2022-12-22T02:29:13.256Z,0.00
2022-12-22T02:30:13.230Z,0.00
2022-12-22T02:31:13.319Z,0.00
2022-12-22T02:32:13.199Z,0.00
2022-12-22T02:33:13.184Z,0.00
2022-12-22T02:34:13.171Z,0.00
2022-12-22T02:35:13.166Z,0.00
2022-12-22T02:36:13.158Z,0.00
2022-12-22T02:37:13.143Z,0.00
2022-12-22T02:38:13.147Z,0.00
2022-12-22T02:39:13.128Z,0.00
2022-12-22T02:40:13.103Z,0.00
2022-12-22T02:41:13.094Z,0.00
2022-12-22T02:42:13.087Z,0.00
2022-12-22T02:43:13.145Z,0.00
2022-12-22T02:44:13.056Z,0.00
2022-12-22T02:45:13.044Z,0.00
2022-12-22T02:46:13.082Z,0.00
2022-12-22T02:47:13.045Z,0.00
2022-12-22T02:48:13.012Z,0.00
2022-12-22T02:49:12.998Z,0.00
2022-12-22T02:50:12.992Z,0.00
2022-12-22T02:51:12.989Z,0.00
2022-12-22T02:52:12.979Z,0.00
2022-12-22T02:53:12.959Z,0.00
2022-12-22T02:54:12.950Z,0.00
2022-12-22T02:55:12.953Z,0.00
2022-12-22T02:56:12.927Z,0.00
2022-12-22T02:57:12.916Z,0.00
2022-12-22T02:58:12.918Z,0.00
2022-12-22T02:59:12.920Z,0.00
2022-12-22T03:00:12.889Z,0.00
2022-12-22T03:01:12.866Z,0.00
2022-12-22T03:02:13.003Z,0.00
2022-12-22T03:03:13.054Z,0.00
2022-12-22T03:04:12.841Z,0.00
2022-12-22T03:05:12.824Z,0.00
2022-12-22T03:06:12.823Z,0.00
2022-12-22T03:07:12.819Z,0.00
2022-12-22T03:08:12.812Z,0.00
2022-12-22T03:09:12.790Z,0.00
2022-12-22T03:10:12.761Z,0.00
2022-12-22T03:11:12.749Z,0.00
2022-12-22T03:12:12.760Z,0.00
2022-12-22T03:13:12.754Z,0.00
2022-12-22T03:14:12.744Z,0.00
2022-12-22T03:15:12.734Z,0.00
2022-12-22T03:16:12.820Z,0.00
2022-12-22T03:17:12.691Z,0.00
2022-12-22T03:18:12.683Z,0.00
2022-12-22T03:19:12.688Z,0.00
2022-12-22T03:20:12.667Z,0.00
2022-12-22T03:21:12.644Z,0.00
2022-12-22T03:22:12.647Z,0.00
2022-12-22T03:23:12.623Z,0.00
2022-12-22T03:24:12.616Z,0.00
2022-12-22T03:25:12.598Z,0.00
2022-12-22T03:26:12.588Z,0.00
2022-12-22T03:27:12.577Z,0.00
2022-12-22T03:28:12.573Z,0.00
2022-12-22T03:29:12.561Z,0.00
2022-12-22T03:30:12.550Z,0.00
2022-12-22T03:31:12.650Z,0.00
2022-12-22T03:32:12.517Z,0.00
2022-12-22T03:33:12.508Z,0.00
2022-12-22T03:34:12.495Z,0.00
2022-12-22T03:35:12.502Z,0.00
2022-12-22T03:36:12.466Z,0.00
2022-12-22T03:37:12.475Z,0.00
2022-12-22T03:38:12.464Z,0.00
2022-12-22T03:39:12.457Z,0.00
2022-12-22T03:40:12.426Z,0.00
2022-12-22T03:41:12.416Z,0.00
2022-12-22T03:42:12.411Z,0.00
2022-12-22T03:43:12.396Z,0.00
2022-12-22T03:44:12.384Z,0.00
2022-12-22T03:45:12.369Z,0.00
2022-12-22T03:46:12.357Z,0.00
2022-12-22T03:47:12.440Z,0.00
2022-12-22T03:48:12.334Z,0.00
2022-12-22T03:49:12.600Z,0.00
2022-12-22T03:50:12.326Z,0.00
2022-12-22T03:51:12.300Z,0.00
2022-12-22T03:52:12.292Z,0.00
2022-12-22T03:53:12.281Z,0.00
2022-12-22T03:54:12.266Z,0.00
2022-12-22T03:55:12.254Z,0.00
2022-12-22T03:56:12.245Z,0.00
2022-12-22T03:57:12.227Z,0.00
2022-12-22T03:58:12.220Z,0.00
2022-12-22T03:59:12.200Z,0.00
2022-12-22T04:00:12.207Z,0.00
2022-12-22T04:01:12.267Z,0.00
2022-12-22T04:02:12.325Z,0.00
2022-12-22T04:03:12.381Z,0.00
2022-12-22T04:04:12.144Z,0.00
2022-12-22T04:05:12.145Z,0.00
2022-12-22T04:06:12.124Z,0.00
2022-12-22T04:07:12.119Z,0.00
2022-12-22T04:08:12.113Z,0.00
2022-12-22T04:09:12.093Z,0.00
2022-12-22T04:10:12.080Z,0.00
2022-12-22T04:11:12.081Z,0.00
2022-12-22T04:12:12.064Z,0.00
2022-12-22T04:13:12.069Z,0.00
2022-12-22T04:14:12.040Z,0.00
2022-12-22T04:15:12.035Z,0.00
2022-12-22T04:16:12.075Z,0.00
2022-12-22T04:17:12.026Z,0.00
2022-12-22T04:18:11.993Z,0.00
2022-12-22T04:19:12.009Z,0.00
2022-12-22T04:20:11.967Z,0.00
2022-12-22T04:21:11.966Z,0.00
2022-12-22T04:22:11.948Z,0.00
2022-12-22T04:23:11.946Z,0.00
2022-12-22T04:24:11.930Z,0.00
2022-12-22T04:25:11.919Z,0.00
2022-12-22T04:26:11.914Z,0.00
2022-12-22T04:27:11.886Z,0.00
2022-12-22T04:28:11.881Z,0.00
2022-12-22T04:29:11.864Z,0.00
2022-12-22T04:30:11.866Z,0.00
2022-12-22T04:31:11.840Z,0.00
2022-12-22T04:32:11.880Z,0.00
2022-12-22T04:33:11.824Z,0.00
2022-12-22T04:34:11.812Z,0.00
2022-12-22T04:35:11.820Z,0.00
2022-12-22T04:36:11.792Z,0.00
2022-12-22T04:37:17.256Z,0.00
2022-12-22T04:38:11.762Z,0.00
2022-12-22T04:39:11.759Z,0.00
2022-12-22T04:40:11.759Z,0.00
2022-12-22T04:41:11.738Z,0.00
2022-12-22T04:42:11.731Z,0.00
2022-12-22T04:43:11.711Z,0.00
2022-12-22T04:44:11.703Z,0.00
2022-12-22T04:45:11.703Z,0.00
2022-12-22T04:46:11.764Z,0.00
2022-12-22T04:47:11.674Z,0.00
2022-12-22T04:48:11.652Z,0.00
2022-12-22T04:49:11.639Z,0.00
2022-12-22T04:50:11.640Z,0.00
2022-12-22T04:51:11.661Z,0.00
2022-12-22T04:52:11.602Z,0.00
2022-12-22T04:53:11.605Z,0.00
2022-12-22T04:54:11.598Z,0.00
2022-12-22T04:55:11.581Z,0.00
2022-12-22T04:56:11.560Z,0.00
2022-12-22T04:57:11.546Z,0.00
2022-12-22T04:58:11.536Z,0.00
2022-12-22T04:59:11.529Z,0.00
2022-12-22T05:00:11.530Z,0.00
2022-12-22T05:01:11.547Z,0.00
2022-12-22T05:02:11.627Z,0.00
2022-12-22T05:03:11.593Z,0.00
2022-12-22T05:04:11.479Z,0.00
2022-12-22T05:05:11.461Z,0.00
2022-12-22T05:06:11.464Z,0.00
2022-12-22T05:07:11.465Z,0.00
2022-12-22T05:08:11.420Z,0.00
2022-12-22T05:09:11.430Z,0.00
2022-12-22T05:10:11.402Z,0.00
2022-12-22T05:11:11.390Z,0.00
2022-12-22T05:12:11.381Z,0.00
2022-12-22T05:13:11.375Z,0.00
2022-12-22T05:14:11.359Z,0.00
2022-12-22T05:15:11.362Z,0.00
2022-12-22T05:16:11.437Z,0.00
2022-12-22T05:17:11.473Z,0.00
2022-12-22T05:18:11.307Z,0.00
2022-12-22T05:19:11.293Z,0.00
2022-12-22T05:20:11.292Z,0.00
2022-12-22T05:21:11.284Z,0.00
2022-12-22T05:22:11.273Z,0.00
2022-12-22T05:23:11.277Z,0.00
2022-12-22T05:24:11.242Z,0.00
2022-12-22T05:25:11.226Z,0.00
2022-12-22T05:26:11.235Z,0.00
2022-12-22T05:27:11.207Z,0.00
2022-12-22T05:28:11.208Z,0.00
2022-12-22T05:29:11.183Z,0.00
2022-12-22T05:30:11.177Z,0.00
2022-12-22T05:31:11.248Z,0.00
2022-12-22T05:32:11.161Z,0.00
2022-12-22T05:33:11.148Z,0.00
2022-12-22T05:34:11.137Z,0.00
2022-12-22T05:35:11.126Z,0.00
2022-12-22T05:36:11.106Z,0.00
2022-12-22T05:37:11.140Z,0.00
2022-12-22T05:38:11.130Z,0.00
2022-12-22T05:39:11.099Z,0.00
2022-12-22T05:40:11.060Z,0.00
2022-12-22T05:41:11.056Z,0.00
2022-12-22T05:42:11.035Z,0.00
2022-12-22T05:43:11.048Z,0.00
2022-12-22T05:44:11.012Z,0.00
2022-12-22T05:45:11.012Z,0.00
2022-12-22T05:46:11.143Z,0.00
2022-12-22T05:47:10.985Z,0.00
2022-12-22T05:48:10.967Z,0.00
2022-12-22T05:49:11.013Z,0.00
2022-12-22T05:50:10.951Z,0.00
2022-12-22T05:51:10.971Z,0.00
2022-12-22T05:52:10.921Z,0.00
2022-12-22T05:53:10.909Z,0.00
2022-12-22T05:54:10.904Z,0.00
2022-12-22T05:55:10.925Z,0.00
2022-12-22T05:56:10.892Z,0.00
2022-12-22T05:57:10.867Z,0.00
2022-12-22T05:58:10.861Z,0.00
2022-12-22T05:59:10.841Z,0.00
2022-12-22T06:00:10.835Z,0.00
2022-12-22T06:01:10.826Z,0.00
2022-12-22T06:02:10.984Z,0.00
2022-12-22T06:03:10.966Z,0.00
2022-12-22T06:04:11.063Z,0.00
2022-12-22T06:05:10.789Z,0.00
2022-12-22T06:06:10.768Z,0.00
2022-12-22T06:07:10.762Z,0.00
2022-12-22T06:08:10.738Z,0.00
2022-12-22T06:09:10.736Z,0.00
2022-12-22T06:10:12.637Z,0.00
2022-12-22T06:11:10.729Z,0.00
2022-12-22T06:12:10.697Z,0.00
2022-12-22T06:13:10.684Z,0.00
2022-12-22T06:14:10.675Z,0.00
2022-12-22T06:15:10.670Z,0.00
2022-12-22T06:16:10.668Z,0.00
2022-12-22T06:17:10.633Z,0.00
2022-12-22T06:18:10.627Z,0.00
2022-12-22T06:19:10.609Z,0.00
2022-12-22T06:20:10.598Z,0.00
2022-12-22T06:21:10.602Z,0.00
2022-12-22T06:22:10.575Z,0.00
2022-12-22T06:23:10.565Z,0.00
2022-12-22T06:24:10.564Z,0.00
2022-12-22T06:25:17.180Z,0.00
2022-12-22T06:26:10.530Z,0.00
2022-12-22T06:27:10.543Z,0.00
2022-12-22T06:28:10.512Z,0.00
2022-12-22T06:29:10.503Z,0.00
2022-12-22T06:30:10.483Z,0.00
2022-12-22T06:31:10.526Z,0.00
2022-12-22T06:32:10.471Z,0.00
2022-12-22T06:33:10.463Z,0.00
2022-12-22T06:34:10.454Z,0.00
2022-12-22T06:35:10.431Z,0.00
2022-12-22T06:36:10.418Z,0.00
2022-12-22T06:37:10.405Z,0.00
2022-12-22T06:38:10.399Z,0.00
2022-12-22T06:39:10.383Z,0.00
2022-12-22T06:40:10.376Z,0.00
2022-12-22T06:41:10.372Z,0.00
2022-12-22T06:42:10.362Z,0.00
2022-12-22T06:43:10.896Z,0.00
2022-12-22T06:44:10.328Z,0.00
2022-12-22T06:45:10.328Z,0.00
2022-12-22T06:46:10.347Z,0.00
2022-12-22T06:47:10.301Z,0.00
2022-12-22T06:48:10.294Z,4.00
2022-12-22T06:49:10.270Z,4.00
2022-12-22T06:50:10.260Z,4.00
2022-12-22T06:51:10.260Z,4.00
2022-12-22T06:52:10.242Z,4.00
2022-12-22T06:53:10.223Z,0.00
2022-12-22T06:54:10.214Z,4.00
2022-12-22T06:55:10.213Z,4.00
2022-12-22T06:56:10.189Z,4.00
2022-12-22T06:57:10.194Z,4.00
2022-12-22T06:58:10.184Z,8.00
2022-12-22T06:59:12.188Z,4.00
2022-12-22T07:00:10.143Z,8.00
2022-12-22T07:01:12.146Z,8.00
2022-12-22T07:02:10.346Z,8.00
2022-12-22T07:03:10.271Z,12.00
2022-12-22T07:04:12.208Z,8.00
2022-12-22T07:05:10.087Z,12.00
2022-12-22T07:06:10.084Z,12.00
2022-12-22T07:07:12.069Z,12.00
2022-12-22T07:08:10.053Z,12.00
2022-12-22T07:09:10.042Z,12.00
2022-12-22T07:10:10.044Z,16.00
2022-12-22T07:11:10.023Z,12.00
2022-12-22T07:12:10.019Z,16.00
2022-12-22T07:13:10.000Z,20.00
2022-12-22T07:14:09.989Z,24.00
2022-12-22T07:15:10.009Z,24.00
2022-12-22T07:16:10.065Z,28.00
2022-12-22T07:17:09.960Z,28.00
2022-12-22T07:18:09.950Z,32.00
2022-12-22T07:19:09.954Z,36.00
2022-12-22T07:20:09.935Z,36.00
2022-12-22T07:21:09.914Z,36.00
2022-12-22T07:22:09.916Z,36.00
2022-12-22T07:23:09.886Z,40.00
2022-12-22T07:24:09.882Z,40.00
2022-12-22T07:25:09.871Z,36.00
2022-12-22T07:26:09.862Z,44.00
2022-12-22T07:27:09.854Z,40.00
2022-12-22T07:28:13.639Z,36.00
2022-12-22T07:29:09.830Z,40.00
2022-12-22T07:30:09.815Z,40.00
2022-12-22T07:31:09.855Z,40.00
2022-12-22T07:32:09.793Z,44.00
2022-12-22T07:33:09.783Z,44.00
2022-12-22T07:34:09.771Z,44.00
2022-12-22T07:35:09.752Z,48.00
2022-12-22T07:36:09.743Z,56.00
2022-12-22T07:37:09.734Z,56.00
2022-12-22T07:38:09.733Z,64.00
2022-12-22T07:39:09.707Z,64.00
2022-12-22T07:40:09.709Z,72.00
2022-12-22T07:41:09.695Z,76.00
2022-12-22T07:42:09.680Z,80.00
2022-12-22T07:43:09.684Z,84.00
2022-12-22T07:44:09.662Z,84.00
2022-12-22T07:45:09.649Z,84.00
2022-12-22T07:46:09.698Z,76.00
2022-12-22T07:47:09.648Z,80.00
2022-12-22T07:48:09.609Z,84.00
2022-12-22T07:49:09.597Z,92.00
2022-12-22T07:50:09.803Z,100.00
2022-12-22T07:51:09.609Z,108.00
2022-12-22T07:52:09.564Z,124.00
2022-12-22T07:53:09.559Z,124.00
2022-12-22T07:54:09.550Z,132.00
2022-12-22T07:55:09.550Z,148.00
2022-12-22T07:56:09.516Z,148.00
2022-12-22T07:57:09.531Z,164.00
2022-12-22T07:58:09.510Z,164.00
2022-12-22T07:59:09.491Z,168.00
2022-12-22T08:00:09.478Z,172.00
2022-12-22T08:01:09.475Z,172.00
2022-12-22T08:02:09.519Z,176.00
2022-12-22T08:03:09.705Z,176.00
2022-12-22T08:04:09.481Z,172.00
2022-12-22T08:05:09.537Z,176.00
2022-12-22T08:06:09.411Z,180.00
2022-12-22T08:07:09.402Z,180.00
2022-12-22T08:08:09.381Z,196.00
2022-12-22T08:09:09.385Z,208.00
2022-12-22T08:10:09.371Z,204.00
2022-12-22T08:11:09.359Z,200.00
2022-12-22T08:12:09.361Z,200.00
2022-12-22T08:13:09.403Z,204.00
2022-12-22T08:14:09.340Z,204.00
2022-12-22T08:15:09.307Z,208.00
2022-12-22T08:16:09.368Z,192.00
2022-12-22T08:17:09.291Z,196.00
2022-12-22T08:18:09.277Z,200.00
2022-12-22T08:19:09.295Z,204.00
2022-12-22T08:20:09.267Z,196.00
2022-12-22T08:21:09.234Z,184.00
2022-12-22T08:22:09.229Z,200.00
2022-12-22T08:23:09.227Z,196.00
2022-12-22T08:24:09.210Z,204.00
2022-12-22T08:25:09.191Z,224.00
2022-12-22T08:26:09.215Z,204.00
2022-12-22T08:27:09.185Z,196.00
2022-12-22T08:28:09.156Z,184.00
2022-12-22T08:29:09.149Z,184.00
2022-12-22T08:30:09.163Z,168.00
2022-12-22T08:31:09.206Z,168.00
2022-12-22T08:32:09.203Z,172.00
2022-12-22T08:33:09.129Z,172.00
2022-12-22T08:34:09.129Z,192.00
2022-12-22T08:35:09.104Z,204.00
2022-12-22T08:36:09.071Z,224.00
2022-12-22T08:37:09.056Z,228.00
2022-12-22T08:38:09.066Z,252.00
2022-12-22T08:39:09.037Z,244.00
2022-12-22T08:40:09.028Z,272.00
2022-12-22T08:41:09.011Z,264.00
2022-12-22T08:42:09.013Z,276.00
2022-12-22T08:43:08.995Z,272.00
2022-12-22T08:44:08.984Z,256.00
2022-12-22T08:45:08.966Z,260.00
2022-12-22T08:46:08.968Z,256.00
2022-12-22T08:47:16.470Z,248.00
2022-12-22T08:48:08.934Z,248.00
2022-12-22T08:49:08.920Z,252.00
2022-12-22T08:50:08.918Z,256.00
2022-12-22T08:51:08.926Z,236.00
2022-12-22T08:52:14.317Z,268.00
2022-12-22T08:53:23.452Z,280.00
2022-12-22T08:54:08.881Z,256.00
2022-12-22T08:55:08.856Z,236.00
2022-12-22T08:56:08.861Z,232.00
2022-12-22T08:57:08.840Z,228.00
2022-12-22T08:58:08.829Z,252.00
2022-12-22T08:59:08.816Z,236.00
2022-12-22T09:00:08.805Z,236.00
2022-12-22T09:01:08.922Z,244.00
2022-12-22T09:02:08.890Z,252.00
2022-12-22T09:03:08.928Z,240.00
2022-12-22T09:04:08.753Z,236.00
2022-12-22T09:05:08.753Z,216.00
2022-12-22T09:06:08.740Z,208.00
2022-12-22T09:07:08.756Z,212.00
2022-12-22T09:08:08.709Z,208.00
2022-12-22T09:09:08.701Z,208.00
2022-12-22T09:10:08.689Z,220.00
2022-12-22T09:11:08.679Z,228.00
2022-12-22T09:12:08.672Z,240.00
2022-12-22T09:13:08.668Z,240.00
2022-12-22T09:14:08.651Z,256.00
2022-12-22T09:15:08.629Z,264.00
2022-12-22T09:16:08.767Z,252.00
2022-12-22T09:17:08.611Z,256.00
2022-12-22T09:18:08.603Z,256.00
2022-12-22T09:19:08.643Z,272.00
2022-12-22T09:20:08.585Z,284.00
2022-12-22T09:21:08.572Z,284.00
2022-12-22T09:22:08.560Z,260.00
2022-12-22T09:23:08.579Z,268.00
2022-12-22T09:24:08.534Z,292.00
2022-12-22T09:25:08.528Z,280.00
2022-12-22T09:26:08.513Z,256.00
2022-12-22T09:27:08.501Z,240.00
2022-12-22T09:28:08.507Z,232.00
2022-12-22T09:29:08.485Z,216.00
2022-12-22T09:30:08.473Z,212.00
2022-12-22T09:31:08.455Z,212.00
2022-12-22T09:32:08.510Z,220.00
2022-12-22T09:33:08.430Z,236.00
2022-12-22T09:34:11.997Z,200.00
2022-12-22T09:35:08.409Z,196.00
2022-12-22T09:36:08.408Z,240.00
2022-12-22T09:37:08.381Z,248.00
2022-12-22T09:38:08.379Z,224.00
2022-12-22T09:39:08.404Z,200.00
2022-12-22T09:40:08.361Z,196.00
2022-12-22T09:41:08.353Z,184.00
2022-12-22T09:42:08.335Z,208.00
2022-12-22T09:43:08.320Z,196.00
2022-12-22T09:44:08.311Z,220.00
2022-12-22T09:45:12.436Z,248.00
2022-12-22T09:46:08.384Z,220.00
2022-12-22T09:47:08.278Z,196.00
2022-12-22T09:48:08.265Z,204.00
2022-12-22T09:49:08.260Z,228.00
2022-12-22T09:50:08.236Z,256.00
2022-12-22T09:51:08.225Z,232.00
2022-12-22T09:52:08.220Z,228.00
2022-12-22T09:53:08.210Z,228.00
2022-12-22T09:54:08.210Z,240.00
2022-12-22T09:55:08.219Z,232.00
2022-12-22T09:56:08.176Z,268.00
2022-12-22T09:57:08.170Z,308.00
2022-12-22T09:58:11.516Z,312.00
2022-12-22T09:59:08.142Z,332.00
2022-12-22T10:00:08.136Z,336.00
2022-12-22T10:01:08.165Z,336.00
2022-12-22T10:02:08.173Z,296.00
2022-12-22T10:03:08.181Z,316.00
2022-12-22T10:04:08.088Z,280.00
2022-12-22T10:05:08.084Z,248.00
2022-12-22T10:06:08.063Z,228.00
2022-12-22T10:07:08.048Z,208.00
2022-12-22T10:08:08.044Z,200.00
2022-12-22T10:09:28.850Z,224.00
2022-12-22T10:10:08.025Z,216.00
2022-12-22T10:11:08.045Z,220.00
2022-12-22T10:12:07.995Z,224.00
2022-12-22T10:13:07.984Z,208.00
2022-12-22T10:14:07.967Z,212.00
2022-12-22T10:15:07.963Z,236.00
2022-12-22T10:16:08.004Z,236.00
2022-12-22T10:17:08.102Z,212.00
2022-12-22T10:18:07.943Z,216.00
2022-12-22T10:19:07.917Z,224.00
2022-12-22T10:20:07.905Z,208.00
2022-12-22T10:21:07.905Z,180.00
2022-12-22T10:22:07.882Z,184.00
2022-12-22T10:23:07.865Z,180.00
2022-12-22T10:24:07.855Z,192.00
2022-12-22T10:25:07.849Z,204.00
2022-12-22T10:27:07.849Z,228.00
2022-12-22T10:28:07.834Z,236.00
2022-12-22T10:29:07.863Z,252.00
2022-12-22T10:30:07.792Z,244.00
2022-12-22T10:31:07.798Z,292.00
2022-12-22T10:32:08.019Z,332.00
2022-12-22T10:33:07.755Z,368.00
2022-12-22T10:34:07.745Z,360.00
2022-12-22T10:35:07.729Z,364.00
2022-12-22T10:36:07.734Z,384.00
2022-12-22T10:37:07.720Z,480.00
2022-12-22T10:38:21.042Z,496.00
2022-12-22T10:39:07.683Z,452.00
2022-12-22T10:40:07.686Z,428.00
2022-12-22T10:41:07.664Z,448.00
2022-12-22T10:42:07.658Z,420.00
2022-12-22T10:43:07.670Z,396.00
2022-12-22T10:44:07.635Z,412.00
2022-12-22T10:45:07.624Z,356.00
2022-12-22T10:46:07.728Z,336.00
2022-12-22T10:47:12.253Z,328.00
2022-12-22T10:48:07.584Z,296.00
2022-12-22T10:49:07.574Z,288.00
2022-12-22T10:50:07.567Z,316.00
2022-12-22T10:51:07.560Z,320.00
2022-12-22T10:52:07.537Z,356.00
2022-12-22T10:53:07.535Z,392.00
2022-12-22T10:54:07.528Z,352.00
2022-12-22T10:55:07.516Z,352.00
2022-12-22T10:56:07.500Z,352.00
2022-12-22T10:57:07.511Z,312.00
2022-12-22T10:58:07.469Z,332.00
2022-12-22T10:59:07.485Z,316.00
2022-12-22T11:00:07.447Z,304.00
2022-12-22T11:01:07.502Z,348.00
2022-12-22T11:02:07.815Z,300.00
2022-12-22T11:03:07.578Z,312.00
2022-12-22T11:04:07.508Z,316.00
2022-12-22T11:05:07.404Z,332.00
2022-12-22T11:06:07.398Z,352.00
2022-12-22T11:07:07.380Z,324.00
2022-12-22T11:08:07.369Z,300.00
2022-12-22T11:09:31.874Z,316.00
2022-12-22T11:10:07.340Z,344.00
2022-12-22T11:11:07.323Z,340.00
2022-12-22T11:12:07.321Z,328.00
2022-12-22T11:13:07.333Z,332.00
2022-12-22T11:14:07.322Z,308.00
2022-12-22T11:15:07.318Z,340.00
2022-12-22T11:16:07.284Z,368.00
2022-12-22T11:17:07.325Z,456.00
2022-12-22T11:18:07.247Z,424.00
2022-12-22T11:19:07.256Z,472.00
2022-12-22T11:20:07.253Z,536.00
2022-12-22T11:21:07.225Z,564.00
2022-12-22T11:22:07.204Z,548.00
2022-12-22T11:23:07.218Z,552.00
2022-12-22T11:24:07.186Z,664.00
2022-12-22T11:25:07.174Z,748.00
2022-12-22T11:26:07.163Z,668.00
2022-12-22T11:27:07.166Z,668.00
2022-12-22T11:28:07.148Z,592.00
2022-12-22T11:29:07.143Z,680.00
2022-12-22T11:30:07.139Z,740.00
2022-12-22T11:31:07.189Z,724.00
2022-12-22T11:32:07.097Z,620.00
2022-12-22T11:33:07.099Z,588.00
2022-12-22T11:34:07.069Z,528.00
2022-12-22T11:35:07.121Z,564.00
2022-12-22T11:36:07.050Z,600.00
2022-12-22T11:37:07.040Z,548.00
2022-12-22T11:38:07.027Z,472.00
2022-12-22T11:39:07.023Z,520.00
2022-12-22T11:40:07.006Z,500.00
2022-12-22T11:41:07.003Z,476.00
2022-12-22T11:42:06.980Z,548.00
2022-12-22T11:43:06.970Z,560.00
2022-12-22T11:44:06.954Z,500.00
2022-12-22T11:45:06.941Z,496.00
2022-12-22T11:46:07.065Z,560.00
2022-12-22T11:47:06.983Z,544.00
2022-12-22T11:48:06.913Z,464.00
2022-12-22T11:49:06.925Z,440.00
2022-12-22T11:51:02.054Z,428.00
2022-12-22T11:51:07.944Z,420.00
2022-12-22T11:52:06.869Z,396.00
2022-12-22T11:53:06.858Z,372.00
2022-12-22T11:54:10.898Z,364.00
2022-12-22T11:55:06.837Z,412.00
2022-12-22T11:56:06.830Z,392.00
2022-12-22T11:57:06.814Z,432.00
2022-12-22T11:58:06.800Z,416.00
2022-12-22T11:59:06.795Z,356.00
2022-12-22T12:00:06.788Z,392.00
2022-12-22T12:01:20.613Z,412.00
2022-12-22T12:02:06.828Z,396.00
2022-12-22T12:03:06.851Z,352.00
2022-12-22T12:04:06.882Z,360.00
2022-12-22T12:05:06.712Z,428.00
2022-12-22T12:06:06.735Z,452.00
2022-12-22T12:07:06.709Z,424.00
2022-12-22T12:08:06.684Z,416.00
2022-12-22T12:09:06.677Z,444.00
2022-12-22T12:10:06.663Z,472.00
2022-12-22T12:11:06.658Z,472.00
2022-12-22T12:12:06.638Z,512.00
2022-12-22T12:13:06.635Z,520.00
2022-12-22T12:14:06.622Z,564.00
2022-12-22T12:15:06.605Z,564.00
2022-12-22T12:16:06.657Z,556.00
2022-12-22T12:17:06.583Z,544.00
2022-12-22T12:18:06.573Z,496.00
2022-12-22T12:19:06.594Z,456.00
2022-12-22T12:20:06.553Z,448.00
2022-12-22T12:21:06.539Z,484.00
2022-12-22T12:22:06.520Z,464.00
2022-12-22T12:23:06.514Z,484.00
2022-12-22T12:24:06.507Z,400.00
2022-12-22T12:25:06.508Z,344.00
2022-12-22T12:26:06.478Z,352.00
2022-12-22T12:27:06.478Z,328.00
2022-12-22T12:28:06.459Z,308.00
2022-12-22T12:29:06.448Z,304.00
2022-12-22T12:30:36.903Z,280.00
2022-12-22T12:31:06.493Z,272.00
2022-12-22T12:32:06.513Z,232.00
2022-12-22T12:33:06.400Z,260.00
2022-12-22T12:34:06.401Z,264.00
2022-12-22T12:35:06.423Z,248.00
2022-12-22T12:36:06.369Z,276.00
2022-12-22T12:37:06.354Z,272.00
2022-12-22T12:38:06.353Z,264.00
2022-12-22T12:39:08.397Z,272.00
2022-12-22T12:40:06.344Z,264.00
2022-12-22T12:41:06.313Z,256.00
2022-12-22T12:42:06.301Z,280.00
2022-12-22T12:43:10.890Z,304.00
2022-12-22T12:44:06.275Z,348.00
2022-12-22T12:45:06.266Z,376.00
2022-12-22T12:46:06.314Z,328.00
2022-12-22T12:47:06.403Z,288.00
2022-12-22T12:48:06.225Z,276.00
2022-12-22T12:49:06.217Z,260.00
2022-12-22T12:50:06.224Z,272.00
2022-12-22T12:51:06.220Z,260.00
2022-12-22T12:52:06.186Z,252.00
2022-12-22T12:53:06.201Z,240.00
2022-12-22T12:54:06.170Z,224.00
2022-12-22T12:55:06.155Z,232.00
2022-12-22T12:56:06.144Z,232.00
2022-12-22T12:57:06.135Z,216.00